createdAt,value
2018-09-25T00:02:09.505Z,72.23
2018-09-25T00:04:42.380Z,71.64
2018-09-25T00:07:15.338Z,71.26
2018-09-25T00:09:48.294Z,71.83
2018-09-25T00:12:21.233Z,71.19
2018-09-25T00:14:54.033Z,71.24
2018-09-25T00:17:26.826Z,70.89
2018-09-25T00:19:59.793Z,70.63
2018-09-25T00:22:32.574Z,70.24
2018-09-25T00:25:05.421Z,71.07
2018-09-25T00:27:38.258Z,71.84
2018-09-25T00:30:11.593Z,71.99
2018-09-25T00:32:44.606Z,71.56
2018-09-25T00:35:17.416Z,71.59
2018-09-25T00:37:50.196Z,72.38
2018-09-25T00:40:23.069Z,73.47
2018-09-25T00:42:55.949Z,73.65
2018-09-25T00:45:28.912Z,72.81
2018-09-25T00:48:01.653Z,72.36
2018-09-25T00:50:34.585Z,72.28
2018-09-25T00:53:07.341Z,71.91
2018-09-25T00:55:40.092Z,71.55
2018-09-25T00:58:12.825Z,70.99
2018-09-25T01:00:45.573Z,71.25
2018-09-25T01:03:18.377Z,71.69
2018-09-25T01:05:51.116Z,71.62
2018-09-25T01:08:23.953Z,71.53
2018-09-25T01:10:56.789Z,72.07
2018-09-25T01:13:29.634Z,71.91
2018-09-25T01:16:02.402Z,72.31
2018-09-25T01:18:35.178Z,73.34
2018-09-25T01:21:08.136Z,74.53
2018-09-25T01:23:40.864Z,75.35
2018-09-25T01:26:13.629Z,75.42
2018-09-25T01:28:46.668Z,75.79
2018-09-25T01:31:19.553Z,75.36
2018-09-25T01:33:52.482Z,74.72
2018-09-25T01:36:25.819Z,74.22
2018-09-25T01:38:58.629Z,73.54
2018-09-25T01:41:31.806Z,72.37
2018-09-25T01:44:04.953Z,71.22
2018-09-25T01:46:37.928Z,71.95
2018-09-25T01:49:10.747Z,72.46
2018-09-25T01:51:43.777Z,73.40
2018-09-25T01:54:16.545Z,74.44
2018-09-25T01:56:49.462Z,74.46
2018-09-25T01:59:22.224Z,73.60
2018-09-25T02:01:55.433Z,73.47
2018-09-25T02:04:28.299Z,72.93
2018-09-25T02:07:01.122Z,72.21
2018-09-25T02:09:33.847Z,72.23
2018-09-25T02:12:06.750Z,72.22
2018-09-25T02:14:39.414Z,72.52
2018-09-25T02:17:12.326Z,72.33
2018-09-25T02:19:45.150Z,73.55
2018-09-25T02:22:17.997Z,74.46
2018-09-25T02:24:50.819Z,73.53
2018-09-25T02:27:23.750Z,73.35
2018-09-25T02:29:56.408Z,72.63
2018-09-25T02:32:29.370Z,72.10
2018-09-25T02:35:02.229Z,72.02
2018-09-25T02:37:34.980Z,72.44
2018-09-25T02:40:07.776Z,72.39
2018-09-25T02:42:40.750Z,71.93
2018-09-25T02:45:13.495Z,72.05
2018-09-25T02:47:46.310Z,72.16
2018-09-25T02:50:19.114Z,72.23
2018-09-25T02:52:52.062Z,72.33
2018-09-25T02:55:25.009Z,72.94
2018-09-25T02:57:57.704Z,72.26
2018-09-25T03:00:30.540Z,72.93
2018-09-25T03:03:03.204Z,74.30
2018-09-25T03:05:35.995Z,73.89
2018-09-25T03:08:08.793Z,73.71
2018-09-25T03:10:41.605Z,72.80
2018-09-25T03:13:14.424Z,72.49
2018-09-25T03:15:47.271Z,71.30
2018-09-25T03:18:20.239Z,72.16
2018-09-25T03:20:53.721Z,71.62
2018-09-25T03:23:26.584Z,72.07
2018-09-25T03:25:59.308Z,71.92
2018-09-25T03:28:32.093Z,71.94
2018-09-25T03:31:04.797Z,72.64
2018-09-25T03:33:37.607Z,72.50
2018-09-25T03:36:10.555Z,72.56
2018-09-25T03:38:43.474Z,72.53
2018-09-25T03:41:16.117Z,71.95
2018-09-25T03:43:48.985Z,71.65
2018-09-25T03:46:21.914Z,71.22
2018-09-25T03:48:54.695Z,71.00
2018-09-25T03:51:27.510Z,72.00
2018-09-25T03:54:00.466Z,72.23
2018-09-25T03:56:33.158Z,72.16
2018-09-25T03:59:05.969Z,71.99
2018-09-25T04:01:38.665Z,72.14
2018-09-25T04:04:11.600Z,71.89
2018-09-25T04:06:44.540Z,72.40
2018-09-25T04:09:17.281Z,71.72
2018-09-25T04:11:50.068Z,73.08
2018-09-25T04:14:23.035Z,72.83
2018-09-25T04:16:56.020Z,72.05
2018-09-25T04:19:28.770Z,72.58
2018-09-25T04:22:01.669Z,72.23
2018-09-25T04:24:34.632Z,71.97
2018-09-25T04:27:07.506Z,71.80
2018-09-25T04:29:40.309Z,72.19
2018-09-25T04:32:13.085Z,71.98
2018-09-25T04:34:45.831Z,72.18
2018-09-25T04:37:18.747Z,71.40
2018-09-25T04:39:51.776Z,71.63
2018-09-25T04:42:24.610Z,71.84
2018-09-25T04:44:57.600Z,71.63
2018-09-25T04:47:30.550Z,71.45
2018-09-25T04:50:03.424Z,72.26
2018-09-25T04:52:36.156Z,72.40
2018-09-25T04:55:08.913Z,72.71
2018-09-25T04:57:41.819Z,72.36
2018-09-25T05:00:14.557Z,72.67
2018-09-25T05:02:47.348Z,73.11
2018-09-25T05:05:20.223Z,73.17
2018-09-25T05:07:53.110Z,73.29
2018-09-25T05:10:25.998Z,72.51
2018-09-25T05:12:58.863Z,71.99
2018-09-25T05:15:31.817Z,72.02
2018-09-25T05:18:04.768Z,71.85
2018-09-25T05:20:37.507Z,71.63
2018-09-25T05:23:10.371Z,72.15
2018-09-25T05:25:43.171Z,72.13
2018-09-25T05:28:15.957Z,72.09
2018-09-25T05:30:48.843Z,71.35
2018-09-25T05:33:21.760Z,72.00
2018-09-25T05:35:54.766Z,71.53
2018-09-25T05:38:27.457Z,71.44
2018-09-25T05:41:00.494Z,71.95
2018-09-25T05:43:33.466Z,71.64
2018-09-25T05:46:06.750Z,71.22
2018-09-25T05:48:39.686Z,71.45
2018-09-25T05:51:12.434Z,70.77
2018-09-25T05:53:45.341Z,70.88
2018-09-25T05:56:18.306Z,70.67
2018-09-25T05:58:51.421Z,71.59
2018-09-25T06:01:24.231Z,72.05
2018-09-25T06:03:56.975Z,72.04
2018-09-25T06:06:29.859Z,72.21
2018-09-25T06:09:02.796Z,71.97
2018-09-25T06:11:35.916Z,72.06
2018-09-25T06:14:08.854Z,72.12
2018-09-25T06:16:41.630Z,72.21
2018-09-25T06:19:14.375Z,72.29
2018-09-25T06:21:47.343Z,72.41
2018-09-25T06:24:20.313Z,71.95
2018-09-25T06:26:53.305Z,71.96
2018-09-25T06:29:26.310Z,71.71
2018-09-25T06:31:59.185Z,71.64
2018-09-25T06:34:32.212Z,71.80
2018-09-25T06:37:06.331Z,71.74
2018-09-25T06:39:39.226Z,72.09
2018-09-25T06:42:12.013Z,72.11
2018-09-25T06:44:45.121Z,72.18
2018-09-25T06:47:18.045Z,71.81
2018-09-25T06:49:50.883Z,72.16
2018-09-25T06:52:23.887Z,72.10
2018-09-25T06:54:56.859Z,72.27
2018-09-25T06:57:29.794Z,72.03
2018-09-25T07:00:02.609Z,72.00
2018-09-25T07:02:35.476Z,72.13
2018-09-25T07:05:08.215Z,71.97
2018-09-25T07:07:41.290Z,72.07
2018-09-25T07:10:14.266Z,72.07
2018-09-25T07:12:48.349Z,72.03
2018-09-25T07:15:21.133Z,71.77
2018-09-25T07:17:54.310Z,71.74
2018-09-25T07:20:27.039Z,71.64
2018-09-25T07:22:59.907Z,71.51
2018-09-25T07:25:32.891Z,71.27
2018-09-25T07:28:05.794Z,71.38
2018-09-25T07:30:38.710Z,71.02
2018-09-25T07:33:11.588Z,70.97
2018-09-25T07:35:44.513Z,70.78
2018-09-25T07:38:17.397Z,71.31
2018-09-25T07:40:50.205Z,71.20
2018-09-25T07:43:23.243Z,71.03
2018-09-25T07:45:56.001Z,71.31
2018-09-25T07:48:29.545Z,70.92
2018-09-25T07:51:02.586Z,71.47
2018-09-25T07:53:35.628Z,71.43
2018-09-25T07:56:08.727Z,71.17
2018-09-25T07:58:41.584Z,70.66
2018-09-25T08:01:14.449Z,69.86
2018-09-25T08:03:47.297Z,70.06
2018-09-25T08:06:20.001Z,70.05
2018-09-25T08:08:52.719Z,68.92
2018-09-25T08:11:25.506Z,69.15
2018-09-25T08:13:58.449Z,68.33
2018-09-25T08:16:31.333Z,68.78
2018-09-25T08:19:04.330Z,68.41
2018-09-25T08:21:37.164Z,67.28
2018-09-25T08:24:10.121Z,66.75
2018-09-25T08:26:42.981Z,66.41
2018-09-25T08:29:15.815Z,66.14
2018-09-25T08:31:48.647Z,65.65
2018-09-25T08:34:21.681Z,64.51
2018-09-25T08:36:54.472Z,65.00
2018-09-25T08:39:27.526Z,64.17
2018-09-25T08:42:00.551Z,63.42
2018-09-25T08:44:33.674Z,61.97
2018-09-25T08:47:06.452Z,61.95
2018-09-25T08:49:40.138Z,61.51
2018-09-25T08:52:13.028Z,60.10
2018-09-25T08:54:46.007Z,59.40
2018-09-25T08:57:18.897Z,59.33
2018-09-25T08:59:51.771Z,59.40
2018-09-25T09:02:24.655Z,58.48
2018-09-25T09:04:57.932Z,57.62
2018-09-25T09:07:30.906Z,57.15
2018-09-25T09:10:03.952Z,56.67
2018-09-25T09:12:36.933Z,56.42
2018-09-25T09:15:10.537Z,55.30
2018-09-25T09:17:43.485Z,55.24
2018-09-25T09:20:16.538Z,54.23
2018-09-25T09:22:49.366Z,53.50
2018-09-25T09:25:22.302Z,52.57
2018-09-25T09:27:55.264Z,52.80
2018-09-25T09:30:28.214Z,52.31
2018-09-25T09:33:01.117Z,52.68
2018-09-25T09:35:34.302Z,51.28
2018-09-25T09:38:07.155Z,52.68
2018-09-25T09:40:40.002Z,49.93
2018-09-25T09:43:13.988Z,50.97
2018-09-25T09:45:48.814Z,50.48
2018-09-25T09:48:21.811Z,50.46
2018-09-25T09:50:54.773Z,48.75
2018-09-25T09:53:27.920Z,47.47
2018-09-25T09:56:00.898Z,48.63
2018-09-25T09:58:33.737Z,48.65
2018-09-25T10:01:06.716Z,47.85
2018-09-25T10:03:40.028Z,47.50
2018-09-25T10:06:13.242Z,47.65
2018-09-25T10:08:46.085Z,47.86
2018-09-25T10:11:19.212Z,47.24
2018-09-25T10:13:52.062Z,46.83
2018-09-25T10:16:25.013Z,48.06
2018-09-25T10:18:58.031Z,47.02
2018-09-25T10:21:30.879Z,46.56
2018-09-25T10:24:03.856Z,46.76
2018-09-25T10:26:36.797Z,45.83
2018-09-25T10:29:09.673Z,45.84
2018-09-25T10:31:42.615Z,45.18
2018-09-25T10:34:15.584Z,45.05
2018-09-25T10:36:48.584Z,44.54
2018-09-25T10:39:21.321Z,43.82
2018-09-25T10:41:54.231Z,43.80
2018-09-25T10:44:27.095Z,44.35
2018-09-25T10:47:00.157Z,43.85
2018-09-25T10:49:33.077Z,44.69
2018-09-25T10:52:06.563Z,45.36
2018-09-25T10:54:39.249Z,44.07
2018-09-25T10:57:12.105Z,42.92
2018-09-25T10:59:46.021Z,41.33
2018-09-25T11:02:19.002Z,42.55
2018-09-25T11:04:51.935Z,41.11
2018-09-25T11:07:25.366Z,41.48
2018-09-25T11:09:58.435Z,41.20
2018-09-25T11:12:31.422Z,41.12
2018-09-25T11:15:04.350Z,40.52
2018-09-25T11:17:37.296Z,41.69
2018-09-25T11:20:10.415Z,40.90
2018-09-25T11:22:43.293Z,39.87
2018-09-25T11:25:16.186Z,40.23
2018-09-25T11:27:49.159Z,40.90
2018-09-25T11:30:22.175Z,40.39
2018-09-25T11:32:55.182Z,40.82
2018-09-25T11:35:28.011Z,40.30
2018-09-25T11:38:01.073Z,40.95
2018-09-25T11:40:34.152Z,39.61
2018-09-25T11:43:07.059Z,40.50
2018-09-25T11:45:40.074Z,40.08
2018-09-25T11:48:12.949Z,40.66
2018-09-25T11:50:45.997Z,40.17
2018-09-25T11:53:19.302Z,41.21
2018-09-25T11:55:52.072Z,40.54
2018-09-25T11:58:25.024Z,41.12
2018-09-25T12:00:57.739Z,41.65
2018-09-25T12:03:30.855Z,41.52
2018-09-25T12:06:03.848Z,40.45
2018-09-25T12:08:36.710Z,40.44
2018-09-25T12:11:09.521Z,41.37
2018-09-25T12:13:42.385Z,39.68
2018-09-25T12:16:15.188Z,38.80
2018-09-25T12:18:48.061Z,38.66
2018-09-25T12:21:20.809Z,38.99
2018-09-25T12:23:53.574Z,38.52
2018-09-25T12:26:26.525Z,38.81
2018-09-25T12:28:59.532Z,38.87
2018-09-25T12:31:32.399Z,38.91
2018-09-25T12:34:05.182Z,38.14
2018-09-25T12:36:38.083Z,38.20
2018-09-25T12:39:12.539Z,38.19
2018-09-25T12:41:45.670Z,37.19
2018-09-25T12:44:18.515Z,37.95
2018-09-25T12:46:51.472Z,37.29
2018-09-25T12:49:24.611Z,37.19
2018-09-25T12:51:57.947Z,36.99
2018-09-25T12:54:30.908Z,38.05
2018-09-25T12:57:03.683Z,38.59
2018-09-25T12:59:36.598Z,37.94
2018-09-25T13:02:09.357Z,37.42
2018-09-25T13:04:42.361Z,37.72
2018-09-25T13:07:15.935Z,36.06
2018-09-25T13:09:48.949Z,36.61
2018-09-25T13:12:21.830Z,36.12
2018-09-25T13:14:54.600Z,36.23
2018-09-25T13:17:27.362Z,35.48
2018-09-25T13:20:00.434Z,35.25
2018-09-25T13:22:33.404Z,35.39
2018-09-25T13:25:06.457Z,36.04
2018-09-25T13:27:39.318Z,35.39
2018-09-25T13:30:12.147Z,35.46
2018-09-25T13:32:45.087Z,34.61
2018-09-25T13:35:18.201Z,35.89
2018-09-25T13:37:51.041Z,34.70
2018-09-25T13:40:24.019Z,34.60
2018-09-25T13:42:57.755Z,34.14
2018-09-25T13:45:30.620Z,34.67
2018-09-25T13:48:03.980Z,33.00
2018-09-25T13:50:37.121Z,33.40
2018-09-25T13:53:10.182Z,32.79
2018-09-25T13:55:43.297Z,33.80
2018-09-25T13:58:16.294Z,32.50
2018-09-25T14:00:49.139Z,31.64
2018-09-25T14:03:22.108Z,31.94
2018-09-25T14:05:54.845Z,31.49
2018-09-25T14:08:27.626Z,32.41
2018-09-25T14:11:00.653Z,31.30
2018-09-25T14:13:33.476Z,31.88
2018-09-25T14:16:06.535Z,31.69
2018-09-25T14:18:39.397Z,31.59
2018-09-25T14:21:12.153Z,31.42
2018-09-25T14:23:45.013Z,30.86
2018-09-25T14:26:17.998Z,30.07
2018-09-25T14:28:50.883Z,31.12
2018-09-25T14:31:23.809Z,30.55
2018-09-25T14:33:56.755Z,29.92
2018-09-25T14:36:29.499Z,30.37
2018-09-25T14:39:02.652Z,29.72
2018-09-25T14:41:35.654Z,30.39
2018-09-25T14:44:08.518Z,29.41
2018-09-25T14:46:41.532Z,29.01
2018-09-25T14:49:14.548Z,28.71
2018-09-25T14:51:47.862Z,29.55
2018-09-25T14:54:20.661Z,29.76
2018-09-25T14:56:53.556Z,29.19
2018-09-25T14:59:26.474Z,29.38
2018-09-25T15:01:59.347Z,28.93
2018-09-25T15:04:32.115Z,29.72
2018-09-25T15:07:05.632Z,29.96
2018-09-25T15:09:38.408Z,29.21
2018-09-25T15:12:11.400Z,28.22
2018-09-25T15:14:44.743Z,28.44
2018-09-25T15:17:17.487Z,28.54
2018-09-25T15:19:50.378Z,28.51
2018-09-25T15:22:23.672Z,29.49
2018-09-25T15:24:56.615Z,29.69
2018-09-25T15:27:30.341Z,30.44
2018-09-25T15:30:03.180Z,30.47
2018-09-25T15:32:36.107Z,31.12
2018-09-25T15:35:09.212Z,31.84
2018-09-25T15:37:42.086Z,32.30
2018-09-25T15:40:15.257Z,32.54
2018-09-25T15:42:48.761Z,33.78
2018-09-25T15:45:22.213Z,33.11
2018-09-25T15:47:55.374Z,32.72
2018-09-25T15:50:28.455Z,33.63
2018-09-25T15:53:08.061Z,33.39
2018-09-25T15:55:41.029Z,33.20
2018-09-25T15:58:13.889Z,33.04
2018-09-25T16:00:46.675Z,33.41
2018-09-25T16:03:19.667Z,33.89
2018-09-25T16:05:52.461Z,33.67
2018-09-25T16:08:25.185Z,34.37
2018-09-25T16:10:58.130Z,33.86
2018-09-25T16:13:31.051Z,34.59
2018-09-25T16:16:04.255Z,34.70
2018-09-25T16:18:37.286Z,34.28
2018-09-25T16:21:10.231Z,35.28
2018-09-25T16:23:44.862Z,34.67
2018-09-25T16:26:17.769Z,34.87
2018-09-25T16:28:50.618Z,35.90
2018-09-25T16:31:23.702Z,36.12
2018-09-25T16:33:56.451Z,36.03
2018-09-25T16:36:29.373Z,35.99
2018-09-25T16:39:02.423Z,36.43
2018-09-25T16:41:35.306Z,37.09
2018-09-25T16:44:08.205Z,36.80
2018-09-25T16:46:41.245Z,36.97
2018-09-25T16:49:15.164Z,38.09
2018-09-25T16:51:48.370Z,37.44
2018-09-25T16:54:21.483Z,37.53
2018-09-25T16:56:54.587Z,37.72
2018-09-25T16:59:27.492Z,37.70
2018-09-25T17:02:00.319Z,38.77
2018-09-25T17:04:33.192Z,38.08
2018-09-25T17:07:05.969Z,38.58
2018-09-25T17:09:38.945Z,38.85
2018-09-25T17:12:12.202Z,38.70
2018-09-25T17:14:45.076Z,38.99
2018-09-25T17:17:17.987Z,39.40
2018-09-25T17:19:50.850Z,39.30
2018-09-25T17:22:23.697Z,39.86
2018-09-25T17:24:56.477Z,39.66
2018-09-25T17:27:29.513Z,40.06
2018-09-25T17:30:02.523Z,40.54
2018-09-25T17:32:35.681Z,40.88
2018-09-25T17:35:08.770Z,41.00
2018-09-25T17:37:41.754Z,41.74
2018-09-25T17:40:14.753Z,41.46
2018-09-25T17:42:47.810Z,41.92
2018-09-25T17:45:20.632Z,42.48
2018-09-25T17:47:53.480Z,43.23
2018-09-25T17:50:26.302Z,43.72
2018-09-25T17:52:59.291Z,44.34
2018-09-25T17:55:32.349Z,44.67
2018-09-25T17:58:05.362Z,44.63
2018-09-25T18:00:38.211Z,44.18
2018-09-25T18:03:11.862Z,43.83
2018-09-25T18:05:51.762Z,44.07
2018-09-25T18:08:24.502Z,45.17
2018-09-25T18:10:57.417Z,45.12
2018-09-25T18:13:30.230Z,45.13
2018-09-25T18:16:03.098Z,46.24
2018-09-25T18:18:36.055Z,46.81
2018-09-25T18:21:08.941Z,46.90
2018-09-25T18:23:41.856Z,47.33
2018-09-25T18:26:15.071Z,46.68
2018-09-25T18:28:47.972Z,47.26
2018-09-25T18:31:20.959Z,47.34
2018-09-25T18:33:54.114Z,46.97
2018-09-25T18:36:27.002Z,47.27
2018-09-25T18:38:59.912Z,47.30
2018-09-25T18:41:32.863Z,48.18
2018-09-25T18:44:05.787Z,48.60
2018-09-25T18:46:38.732Z,48.70
2018-09-25T18:49:11.795Z,49.19
2018-09-25T18:51:44.802Z,50.23
2018-09-25T18:54:17.630Z,50.17
2018-09-25T18:56:50.638Z,50.90
2018-09-25T18:59:23.485Z,51.14
2018-09-25T19:01:56.400Z,51.30
2018-09-25T19:04:29.755Z,52.55
2018-09-25T19:07:02.561Z,51.98
2018-09-25T19:09:35.491Z,51.99
2018-09-25T19:12:08.497Z,52.19
2018-09-25T19:14:41.597Z,52.45
2018-09-25T19:17:14.731Z,53.10
2018-09-25T19:19:47.843Z,52.53
2018-09-25T19:22:20.730Z,52.77
2018-09-25T19:24:53.649Z,53.83
2018-09-25T19:30:08.834Z,53.83
2018-09-25T19:32:41.721Z,54.87
2018-09-25T19:35:14.731Z,54.41
2018-09-25T19:37:47.500Z,54.53
2018-09-25T19:40:20.535Z,54.40
2018-09-25T19:42:53.553Z,55.37
2018-09-25T19:45:26.396Z,55.34
2018-09-25T19:47:59.350Z,55.86
2018-09-25T19:50:33.076Z,55.78
2018-09-25T19:53:06.173Z,55.90
2018-09-25T19:55:39.255Z,55.12
2018-09-25T19:58:12.419Z,55.81
2018-09-25T20:00:45.218Z,55.92
2018-09-25T20:03:18.082Z,56.03
2018-09-25T20:05:51.077Z,56.41
2018-09-25T20:08:23.909Z,56.44
2018-09-25T20:10:57.079Z,57.28
2018-09-25T20:13:30.035Z,56.99
2018-09-25T20:16:02.942Z,56.97
2018-09-25T20:18:35.867Z,56.94
2018-09-25T20:21:08.901Z,56.64
2018-09-25T20:23:41.875Z,56.69
2018-09-25T20:26:14.840Z,56.66
2018-09-25T20:28:47.754Z,57.50
2018-09-25T20:31:20.637Z,58.40
2018-09-25T20:33:53.407Z,59.05
2018-09-25T20:36:26.363Z,59.05
2018-09-25T20:38:59.205Z,58.85
2018-09-25T20:41:32.561Z,60.15
2018-09-25T20:44:05.388Z,60.73
2018-09-25T20:46:38.402Z,60.57
2018-09-25T20:49:11.757Z,60.14
2018-09-25T20:51:44.724Z,59.91
2018-09-25T20:54:17.589Z,60.45
2018-09-25T20:56:50.421Z,60.88
2018-09-25T20:59:23.766Z,60.44
2018-09-25T21:01:56.862Z,60.35
2018-09-25T21:04:29.868Z,61.02
2018-09-25T21:07:02.682Z,60.97
2018-09-25T21:09:35.701Z,60.91
2018-09-25T21:12:08.599Z,60.87
2018-09-25T21:14:42.438Z,62.12
2018-09-25T21:17:15.448Z,62.26
2018-09-25T21:19:48.399Z,62.30
2018-09-25T21:22:21.272Z,62.54
2018-09-25T21:24:54.163Z,62.17
2018-09-25T21:27:27.282Z,62.54
2018-09-25T21:30:00.312Z,62.09
2018-09-25T21:32:33.596Z,61.66
2018-09-25T21:35:06.581Z,62.38
2018-09-25T21:37:39.848Z,62.50
2018-09-25T21:40:12.920Z,62.83
2018-09-25T21:42:45.973Z,63.01
2018-09-25T21:45:18.994Z,62.98
2018-09-25T21:47:51.805Z,62.67
2018-09-25T21:50:24.748Z,63.24
2018-09-25T21:52:57.693Z,64.17
2018-09-25T21:55:30.525Z,63.75
2018-09-25T21:58:03.922Z,64.32
2018-09-25T22:00:37.104Z,64.30
2018-09-25T22:03:10.187Z,64.26
2018-09-25T22:05:42.922Z,64.46
2018-09-25T22:08:15.869Z,64.43
2018-09-25T22:10:48.909Z,64.43
2018-09-25T22:13:21.689Z,64.58
2018-09-25T22:15:54.516Z,64.23
2018-09-25T22:18:27.362Z,64.54
2018-09-25T22:21:00.413Z,64.83
2018-09-25T22:23:33.466Z,64.80
2018-09-25T22:26:06.483Z,65.17
2018-09-25T22:28:39.409Z,64.85
2018-09-25T22:31:12.375Z,64.69
2018-09-25T22:33:45.330Z,65.00
2018-09-25T22:36:18.266Z,64.78
2018-09-25T22:38:51.097Z,64.41
2018-09-25T22:41:23.937Z,64.72
2018-09-25T22:43:56.653Z,64.89
2018-09-25T22:46:29.565Z,64.45
2018-09-25T22:49:02.511Z,65.17
2018-09-25T22:51:35.318Z,65.54
2018-09-25T22:54:08.269Z,65.06
2018-09-25T22:56:41.101Z,65.07
2018-09-25T22:59:14.549Z,64.98
2018-09-25T23:01:47.506Z,65.20
2018-09-25T23:04:20.273Z,64.98
2018-09-25T23:06:53.240Z,65.52
2018-09-25T23:09:26.003Z,65.45
2018-09-25T23:11:59.095Z,65.18
2018-09-25T23:14:31.983Z,65.18
2018-09-25T23:17:04.841Z,64.85
2018-09-25T23:19:38.036Z,65.06
2018-09-25T23:22:10.915Z,65.23
2018-09-25T23:24:43.649Z,65.55
2018-09-25T23:27:16.378Z,65.55
2018-09-25T23:29:49.113Z,66.04
2018-09-25T23:32:21.997Z,66.25
2018-09-25T23:34:54.847Z,66.38
2018-09-25T23:37:27.800Z,66.63
2018-09-25T23:39:59.566Z,65.85
2018-09-25T23:42:35.373Z,65.50
2018-09-25T23:45:08.768Z,65.46
2018-09-25T23:47:44.250Z,66.20
2018-09-25T23:50:52.271Z,66.62
2018-09-25T23:53:27.195Z,67.15
2018-09-25T23:56:00.039Z,66.81
2018-09-25T23:58:32.684Z,66.99
